Terminal Aerodrome Forecast
Issued by NWS

Home | Current Version | Previous Version | Text Only | Print | Product List | Glossary Off
Versions: 1 2 3 4 5 6 7 8 9 10 11 12 13 14 15 16 17 18 19

000
FTUS43 KMPX 211230 AAA
TAFRNH
TAF AMD
KRNH 211230Z 2113/2212 21004KT 1/4SM FG VV001
     FM211400 20005KT 2SM BR BKN004
     FM211600 20009KT P6SM SCT250
     FM211800 20012G20KT P6SM SCT250
     FM212300 19007KT P6SM SCT250=

USA.gov is the U.S. government's official web portal to all federal, state and local government web resources and services.